sensor_id;sensor_type;location;lat;lon;timestamp;P1;durP1;ratioP1;P2;durP2;ratioP2
81056;SDS011;70563;50.084;14.468;2023-10-19T00:00:46;12.90;;;8.00;;
81056;SDS011;70563;50.084;14.468;2023-10-19T00:03:16;16.30;;;7.88;;
81056;SDS011;70563;50.084;14.468;2023-10-19T00:05:43;13.48;;;7.43;;
81056;SDS011;70563;50.084;14.468;2023-10-19T00:08:12;13.65;;;7.75;;
81056;SDS011;70563;50.084;14.468;2023-10-19T00:10:38;13.02;;;7.70;;
81056;SDS011;70563;50.084;14.468;2023-10-19T00:13:05;11.35;;;7.43;;
81056;SDS011;70563;50.084;14.468;2023-10-19T00:15:33;14.45;;;7.70;;
81056;SDS011;70563;50.084;14.468;2023-10-19T00:18:02;15.70;;;7.70;;
81056;SDS011;70563;50.084;14.468;2023-10-19T00:20:48;15.20;;;7.13;;
81056;SDS011;70563;50.084;14.468;2023-10-19T00:23:21;11.93;;;5.53;;
81056;SDS011;70563;50.084;14.468;2023-10-19T00:25:55;13.38;;;7.57;;
81056;SDS011;70563;50.084;14.468;2023-10-19T00:28:22;15.20;;;7.80;;
81056;SDS011;70563;50.084;14.468;2023-10-19T00:30:47;13.35;;;6.97;;
81056;SDS011;70563;50.084;14.468;2023-10-19T00:33:16;13.30;;;7.20;;
81056;SDS011;70563;50.084;14.468;2023-10-19T00:35:43;11.57;;;6.78;;
81056;SDS011;70563;50.084;14.468;2023-10-19T00:38:12;14.55;;;7.28;;
81056;SDS011;70563;50.084;14.468;2023-10-19T00:41:05;13.77;;;6.72;;
81056;SDS011;70563;50.084;14.468;2023-10-19T00:43:42;15.48;;;8.95;;
81056;SDS011;70563;50.084;14.468;2023-10-19T00:46:10;18.55;;;11.07;;
81056;SDS011;70563;50.084;14.468;2023-10-19T00:51:20;14.82;;;8.50;;
81056;SDS011;70563;50.084;14.468;2023-10-19T00:53:55;13.07;;;7.95;;
81056;SDS011;70563;50.084;14.468;2023-10-19T00:56:24;13.00;;;7.85;;
81056;SDS011;70563;50.084;14.468;2023-10-19T00:58:56;9.73;;;7.32;;
81056;SDS011;70563;50.084;14.468;2023-10-19T01:01:26;13.73;;;6.85;;
81056;SDS011;70563;50.084;14.468;2023-10-19T01:03:54;11.43;;;6.75;;
81056;SDS011;70563;50.084;14.468;2023-10-19T01:06:23;16.08;;;7.50;;
81056;SDS011;70563;50.084;14.468;2023-10-19T01:08:50;12.50;;;7.05;;
81056;SDS011;70563;50.084;14.468;2023-10-19T01:11:17;13.15;;;7.25;;
81056;SDS011;70563;50.084;14.468;2023-10-19T01:13:46;13.98;;;7.50;;
81056;SDS011;70563;50.084;14.468;2023-10-19T01:16:16;14.95;;;6.68;;
81056;SDS011;70563;50.084;14.468;2023-10-19T01:18:48;13.35;;;7.47;;
81056;SDS011;70563;50.084;14.468;2023-10-19T01:21:19;14.40;;;7.57;;
81056;SDS011;70563;50.084;14.468;2023-10-19T01:24:01;12.02;;;6.95;;
81056;SDS011;70563;50.084;14.468;2023-10-19T01:26:26;18.13;;;9.82;;
81056;SDS011;70563;50.084;14.468;2023-10-19T01:28:51;23.60;;;18.40;;
81056;SDS011;70563;50.084;14.468;2023-10-19T01:31:19;35.70;;;23.50;;
81056;SDS011;70563;50.084;14.468;2023-10-19T01:33:54;40.25;;;27.52;;
81056;SDS011;70563;50.084;14.468;2023-10-19T01:36:22;46.35;;;28.48;;
81056;SDS011;70563;50.084;14.468;2023-10-19T01:38:48;33.45;;;20.90;;
81056;SDS011;70563;50.084;14.468;2023-10-19T01:41:14;28.73;;;18.77;;
81056;SDS011;70563;50.084;14.468;2023-10-19T01:43:46;15.88;;;10.15;;
81056;SDS011;70563;50.084;14.468;2023-10-19T01:46:14;14.00;;;8.23;;
81056;SDS011;70563;50.084;14.468;2023-10-19T01:48:47;18.20;;;8.57;;
81056;SDS011;70563;50.084;14.468;2023-10-19T01:51:15;11.85;;;7.32;;
81056;SDS011;70563;50.084;14.468;2023-10-19T01:53:41;11.23;;;7.15;;
81056;SDS011;70563;50.084;14.468;2023-10-19T01:56:14;13.13;;;7.55;;
81056;SDS011;70563;50.084;14.468;2023-10-19T01:58:41;9.32;;;6.28;;
81056;SDS011;70563;50.084;14.468;2023-10-19T02:01:09;9.77;;;6.75;;
81056;SDS011;70563;50.084;14.468;2023-10-19T02:03:38;12.57;;;7.55;;
81056;SDS011;70563;50.084;14.468;2023-10-19T02:06:07;10.93;;;6.47;;
81056;SDS011;70563;50.084;14.468;2023-10-19T02:08:48;13.40;;;7.15;;
81056;SDS011;70563;50.084;14.468;2023-10-19T02:13:47;16.25;;;7.82;;
81056;SDS011;70563;50.084;14.468;2023-10-19T02:16:15;10.98;;;6.90;;
81056;SDS011;70563;50.084;14.468;2023-10-19T02:18:42;12.65;;;7.88;;
81056;SDS011;70563;50.084;14.468;2023-10-19T02:21:08;12.70;;;6.72;;
81056;SDS011;70563;50.084;14.468;2023-10-19T02:23:37;15.13;;;6.65;;
81056;SDS011;70563;50.084;14.468;2023-10-19T02:26:03;14.88;;;7.35;;
81056;SDS011;70563;50.084;14.468;2023-10-19T02:28:30;11.70;;;6.85;;
81056;SDS011;70563;50.084;14.468;2023-10-19T02:31:05;16.20;;;8.63;;
81056;SDS011;70563;50.084;14.468;2023-10-19T02:33:44;21.00;;;13.57;;
81056;SDS011;70563;50.084;14.468;2023-10-19T02:36:27;27.65;;;18.90;;
81056;SDS011;70563;50.084;14.468;2023-10-19T02:41:24;12.82;;;8.38;;
81056;SDS011;70563;50.084;14.468;2023-10-19T02:43:52;13.63;;;8.50;;
81056;SDS011;70563;50.084;14.468;2023-10-19T02:46:48;14.27;;;7.57;;
81056;SDS011;70563;50.084;14.468;2023-10-19T02:49:23;10.95;;;5.50;;
81056;SDS011;70563;50.084;14.468;2023-10-19T02:51:50;14.05;;;8.02;;
81056;SDS011;70563;50.084;14.468;2023-10-19T02:54:18;15.93;;;8.48;;
81056;SDS011;70563;50.084;14.468;2023-10-19T02:56:48;11.73;;;7.63;;
81056;SDS011;70563;50.084;14.468;2023-10-19T02:59:17;12.73;;;7.72;;
81056;SDS011;70563;50.084;14.468;2023-10-19T03:01:47;19.92;;;8.15;;
81056;SDS011;70563;50.084;14.468;2023-10-19T03:04:12;14.95;;;7.68;;
81056;SDS011;70563;50.084;14.468;2023-10-19T03:06:38;15.05;;;7.38;;
81056;SDS011;70563;50.084;14.468;2023-10-19T03:09:06;12.27;;;7.40;;
81056;SDS011;70563;50.084;14.468;2023-10-19T03:11:42;13.52;;;8.20;;
81056;SDS011;70563;50.084;14.468;2023-10-19T03:14:09;18.40;;;6.82;;
81056;SDS011;70563;50.084;14.468;2023-10-19T03:16:36;13.55;;;7.82;;
81056;SDS011;70563;50.084;14.468;2023-10-19T03:19:02;12.98;;;7.57;;
81056;SDS011;70563;50.084;14.468;2023-10-19T03:21:29;17.25;;;8.02;;
81056;SDS011;70563;50.084;14.468;2023-10-19T03:23:58;14.32;;;7.22;;
81056;SDS011;70563;50.084;14.468;2023-10-19T03:26:27;15.23;;;8.15;;
81056;SDS011;70563;50.084;14.468;2023-10-19T03:29:14;12.98;;;7.68;;
81056;SDS011;70563;50.084;14.468;2023-10-19T03:31:40;13.63;;;8.40;;
81056;SDS011;70563;50.084;14.468;2023-10-19T03:34:09;13.20;;;7.53;;
81056;SDS011;70563;50.084;14.468;2023-10-19T03:36:37;17.17;;;8.70;;
81056;SDS011;70563;50.084;14.468;2023-10-19T03:39:03;12.52;;;8.20;;
81056;SDS011;70563;50.084;14.468;2023-10-19T03:41:38;14.55;;;8.43;;
81056;SDS011;70563;50.084;14.468;2023-10-19T03:44:07;13.98;;;8.85;;
81056;SDS011;70563;50.084;14.468;2023-10-19T03:46:38;17.02;;;8.60;;
81056;SDS011;70563;50.084;14.468;2023-10-19T03:49:17;14.00;;;8.82;;
81056;SDS011;70563;50.084;14.468;2023-10-19T03:51:44;12.93;;;8.32;;
81056;SDS011;70563;50.084;14.468;2023-10-19T03:54:45;15.70;;;8.85;;
81056;SDS011;70563;50.084;14.468;2023-10-19T03:57:12;14.57;;;8.02;;
81056;SDS011;70563;50.084;14.468;2023-10-19T03:59:49;13.32;;;7.72;;
81056;SDS011;70563;50.084;14.468;2023-10-19T04:02:15;11.68;;;8.65;;
81056;SDS011;70563;50.084;14.468;2023-10-19T04:04:42;17.45;;;9.07;;
81056;SDS011;70563;50.084;14.468;2023-10-19T04:07:16;15.07;;;8.95;;
81056;SDS011;70563;50.084;14.468;2023-10-19T04:09:51;13.68;;;8.55;;
81056;SDS011;70563;50.084;14.468;2023-10-19T04:12:29;14.40;;;8.88;;
81056;SDS011;70563;50.084;14.468;2023-10-19T04:14:56;18.08;;;10.27;;
81056;SDS011;70563;50.084;14.468;2023-10-19T04:17:22;15.40;;;8.68;;
81056;SDS011;70563;50.084;14.468;2023-10-19T04:19:49;19.42;;;10.13;;
81056;SDS011;70563;50.084;14.468;2023-10-19T04:22:18;21.80;;;9.25;;
81056;SDS011;70563;50.084;14.468;2023-10-19T04:24:50;14.98;;;9.95;;
81056;SDS011;70563;50.084;14.468;2023-10-19T04:27:15;14.82;;;9.13;;
81056;SDS011;70563;50.084;14.468;2023-10-19T04:29:41;15.70;;;9.55;;
81056;SDS011;70563;50.084;14.468;2023-10-19T04:32:08;14.93;;;10.00;;
81056;SDS011;70563;50.084;14.468;2023-10-19T04:34:35;14.88;;;9.98;;
81056;SDS011;70563;50.084;14.468;2023-10-19T04:37:01;15.27;;;9.05;;
81056;SDS011;70563;50.084;14.468;2023-10-19T04:39:28;16.33;;;9.02;;
81056;SDS011;70563;50.084;14.468;2023-10-19T04:41:55;41.08;;;24.88;;
81056;SDS011;70563;50.084;14.468;2023-10-19T04:44:21;41.15;;;28.95;;
81056;SDS011;70563;50.084;14.468;2023-10-19T04:46:46;31.90;;;23.42;;
81056;SDS011;70563;50.084;14.468;2023-10-19T04:49:11;43.58;;;32.00;;
81056;SDS011;70563;50.084;14.468;2023-10-19T04:51:37;52.72;;;41.38;;
81056;SDS011;70563;50.084;14.468;2023-10-19T04:54:04;63.20;;;48.13;;
81056;SDS011;70563;50.084;14.468;2023-10-19T04:56:30;62.03;;;46.58;;
81056;SDS011;70563;50.084;14.468;2023-10-19T04:58:57;64.10;;;45.35;;
81056;SDS011;70563;50.084;14.468;2023-10-19T05:01:22;48.95;;;34.95;;
81056;SDS011;70563;50.084;14.468;2023-10-19T05:03:47;27.17;;;17.77;;
81056;SDS011;70563;50.084;14.468;2023-10-19T05:06:13;21.35;;;14.60;;
81056;SDS011;70563;50.084;14.468;2023-10-19T05:08:38;21.77;;;12.60;;
81056;SDS011;70563;50.084;14.468;2023-10-19T05:11:04;22.50;;;11.90;;
81056;SDS011;70563;50.084;14.468;2023-10-19T05:13:30;20.15;;;12.13;;
81056;SDS011;70563;50.084;14.468;2023-10-19T05:15:57;20.95;;;12.95;;
81056;SDS011;70563;50.084;14.468;2023-10-19T05:18:24;21.52;;;11.60;;
81056;SDS011;70563;50.084;14.468;2023-10-19T05:20:50;21.42;;;12.15;;
81056;SDS011;70563;50.084;14.468;2023-10-19T05:23:20;24.45;;;11.77;;
81056;SDS011;70563;50.084;14.468;2023-10-19T05:25:47;23.52;;;13.05;;
81056;SDS011;70563;50.084;14.468;2023-10-19T05:28:12;22.48;;;13.13;;
81056;SDS011;70563;50.084;14.468;2023-10-19T05:30:37;18.58;;;11.75;;
81056;SDS011;70563;50.084;14.468;2023-10-19T05:33:03;24.40;;;12.75;;
81056;SDS011;70563;50.084;14.468;2023-10-19T05:35:29;22.25;;;12.77;;
81056;SDS011;70563;50.084;14.468;2023-10-19T05:37:55;19.45;;;12.93;;
81056;SDS011;70563;50.084;14.468;2023-10-19T05:40:24;18.40;;;12.40;;
81056;SDS011;70563;50.084;14.468;2023-10-19T05:42:54;19.05;;;12.00;;
81056;SDS011;70563;50.084;14.468;2023-10-19T05:45:20;18.25;;;12.05;;
81056;SDS011;70563;50.084;14.468;2023-10-19T05:47:45;16.95;;;11.15;;
81056;SDS011;70563;50.084;14.468;2023-10-19T05:50:11;18.55;;;10.85;;
81056;SDS011;70563;50.084;14.468;2023-10-19T05:52:40;20.92;;;10.20;;
81056;SDS011;70563;50.084;14.468;2023-10-19T05:55:09;19.85;;;11.63;;
81056;SDS011;70563;50.084;14.468;2023-10-19T05:57:38;18.23;;;11.05;;
81056;SDS011;70563;50.084;14.468;2023-10-19T06:00:11;17.60;;;10.55;;
81056;SDS011;70563;50.084;14.468;2023-10-19T06:02:38;20.65;;;10.63;;
81056;SDS011;70563;50.084;14.468;2023-10-19T06:05:12;18.42;;;11.27;;
81056;SDS011;70563;50.084;14.468;2023-10-19T06:07:40;17.00;;;10.80;;
81056;SDS011;70563;50.084;14.468;2023-10-19T06:10:06;17.65;;;9.82;;
81056;SDS011;70563;50.084;14.468;2023-10-19T06:12:32;18.20;;;10.75;;
81056;SDS011;70563;50.084;14.468;2023-10-19T06:14:58;17.73;;;10.93;;
81056;SDS011;70563;50.084;14.468;2023-10-19T06:17:25;19.95;;;11.60;;
81056;SDS011;70563;50.084;14.468;2023-10-19T06:19:51;18.67;;;11.52;;
81056;SDS011;70563;50.084;14.468;2023-10-19T06:22:16;17.75;;;11.15;;
81056;SDS011;70563;50.084;14.468;2023-10-19T06:24:42;17.20;;;9.82;;
81056;SDS011;70563;50.084;14.468;2023-10-19T06:27:08;21.23;;;10.90;;
81056;SDS011;70563;50.084;14.468;2023-10-19T06:29:34;17.85;;;11.02;;
81056;SDS011;70563;50.084;14.468;2023-10-19T06:32:00;17.60;;;11.27;;
81056;SDS011;70563;50.084;14.468;2023-10-19T06:34:25;18.10;;;11.00;;
81056;SDS011;70563;50.084;14.468;2023-10-19T06:36:52;18.48;;;11.52;;
81056;SDS011;70563;50.084;14.468;2023-10-19T06:39:19;19.92;;;11.15;;
81056;SDS011;70563;50.084;14.468;2023-10-19T06:41:45;21.17;;;11.75;;
81056;SDS011;70563;50.084;14.468;2023-10-19T06:44:11;20.17;;;12.77;;
81056;SDS011;70563;50.084;14.468;2023-10-19T06:46:38;17.35;;;10.85;;
81056;SDS011;70563;50.084;14.468;2023-10-19T06:49:04;22.00;;;12.25;;
81056;SDS011;70563;50.084;14.468;2023-10-19T06:51:30;19.45;;;12.07;;
81056;SDS011;70563;50.084;14.468;2023-10-19T06:53:55;24.85;;;12.68;;
81056;SDS011;70563;50.084;14.468;2023-10-19T06:56:21;24.65;;;13.55;;
81056;SDS011;70563;50.084;14.468;2023-10-19T06:58:46;19.48;;;11.32;;
81056;SDS011;70563;50.084;14.468;2023-10-19T07:01:11;19.40;;;12.55;;
81056;SDS011;70563;50.084;14.468;2023-10-19T07:03:41;20.83;;;12.15;;
81056;SDS011;70563;50.084;14.468;2023-10-19T07:06:06;23.08;;;13.10;;
81056;SDS011;70563;50.084;14.468;2023-10-19T07:08:33;20.33;;;12.38;;
81056;SDS011;70563;50.084;14.468;2023-10-19T07:10:58;20.38;;;12.38;;
81056;SDS011;70563;50.084;14.468;2023-10-19T07:13:25;24.13;;;12.85;;
81056;SDS011;70563;50.084;14.468;2023-10-19T07:15:51;17.92;;;12.27;;
81056;SDS011;70563;50.084;14.468;2023-10-19T07:18:16;18.77;;;12.25;;
81056;SDS011;70563;50.084;14.468;2023-10-19T07:20:42;19.60;;;12.43;;
81056;SDS011;70563;50.084;14.468;2023-10-19T07:23:08;19.13;;;11.00;;
81056;SDS011;70563;50.084;14.468;2023-10-19T07:25:51;20.55;;;12.20;;
81056;SDS011;70563;50.084;14.468;2023-10-19T07:28:19;19.85;;;12.43;;
81056;SDS011;70563;50.084;14.468;2023-10-19T07:30:45;19.35;;;12.40;;
81056;SDS011;70563;50.084;14.468;2023-10-19T07:33:16;20.77;;;12.30;;
81056;SDS011;70563;50.084;14.468;2023-10-19T07:35:51;18.88;;;12.82;;
81056;SDS011;70563;50.084;14.468;2023-10-19T07:38:23;18.92;;;12.68;;
81056;SDS011;70563;50.084;14.468;2023-10-19T07:40:49;21.48;;;12.77;;
81056;SDS011;70563;50.084;14.468;2023-10-19T07:43:17;21.10;;;13.15;;
81056;SDS011;70563;50.084;14.468;2023-10-19T07:45:45;21.13;;;12.77;;
81056;SDS011;70563;50.084;14.468;2023-10-19T07:48:12;22.25;;;12.70;;
81056;SDS011;70563;50.084;14.468;2023-10-19T07:50:38;23.55;;;13.65;;
81056;SDS011;70563;50.084;14.468;2023-10-19T07:53:05;21.55;;;12.35;;
81056;SDS011;70563;50.084;14.468;2023-10-19T07:55:31;23.70;;;13.07;;
81056;SDS011;70563;50.084;14.468;2023-10-19T07:57:57;20.20;;;12.25;;
81056;SDS011;70563;50.084;14.468;2023-10-19T08:00:25;20.67;;;12.52;;
81056;SDS011;70563;50.084;14.468;2023-10-19T08:02:51;22.52;;;13.68;;
81056;SDS011;70563;50.084;14.468;2023-10-19T08:05:19;20.80;;;12.00;;
81056;SDS011;70563;50.084;14.468;2023-10-19T08:07:44;20.45;;;12.90;;
81056;SDS011;70563;50.084;14.468;2023-10-19T08:10:12;22.35;;;13.43;;
81056;SDS011;70563;50.084;14.468;2023-10-19T08:12:39;20.73;;;13.35;;
81056;SDS011;70563;50.084;14.468;2023-10-19T08:15:09;21.80;;;14.27;;
81056;SDS011;70563;50.084;14.468;2023-10-19T08:17:36;24.23;;;12.73;;
81056;SDS011;70563;50.084;14.468;2023-10-19T08:20:04;23.88;;;13.55;;
81056;SDS011;70563;50.084;14.468;2023-10-19T08:22:33;21.40;;;13.20;;
81056;SDS011;70563;50.084;14.468;2023-10-19T08:24:59;26.10;;;14.00;;
81056;SDS011;70563;50.084;14.468;2023-10-19T08:27:24;25.40;;;13.55;;
81056;SDS011;70563;50.084;14.468;2023-10-19T08:29:50;20.33;;;12.63;;
81056;SDS011;70563;50.084;14.468;2023-10-19T08:32:15;21.60;;;13.18;;
81056;SDS011;70563;50.084;14.468;2023-10-19T08:34:41;25.23;;;12.80;;
81056;SDS011;70563;50.084;14.468;2023-10-19T08:37:06;21.65;;;12.45;;
81056;SDS011;70563;50.084;14.468;2023-10-19T08:39:32;19.98;;;12.77;;
81056;SDS011;70563;50.084;14.468;2023-10-19T08:42:04;20.50;;;12.88;;
81056;SDS011;70563;50.084;14.468;2023-10-19T08:44:30;27.30;;;13.90;;
81056;SDS011;70563;50.084;14.468;2023-10-19T08:46:56;26.10;;;14.55;;
81056;SDS011;70563;50.084;14.468;2023-10-19T08:49:25;23.65;;;13.38;;
81056;SDS011;70563;50.084;14.468;2023-10-19T08:51:54;20.60;;;13.48;;
81056;SDS011;70563;50.084;14.468;2023-10-19T08:54:20;25.30;;;13.40;;
81056;SDS011;70563;50.084;14.468;2023-10-19T08:56:45;24.55;;;13.55;;
81056;SDS011;70563;50.084;14.468;2023-10-19T08:59:12;20.80;;;12.80;;
81056;SDS011;70563;50.084;14.468;2023-10-19T09:01:40;31.40;;;14.82;;
81056;SDS011;70563;50.084;14.468;2023-10-19T09:04:09;29.38;;;13.85;;
81056;SDS011;70563;50.084;14.468;2023-10-19T09:06:41;25.70;;;15.77;;
81056;SDS011;70563;50.084;14.468;2023-10-19T09:09:08;23.17;;;13.13;;
81056;SDS011;70563;50.084;14.468;2023-10-19T09:11:34;23.50;;;14.55;;
81056;SDS011;70563;50.084;14.468;2023-10-19T09:14:00;24.80;;;15.15;;
81056;SDS011;70563;50.084;14.468;2023-10-19T09:16:26;25.63;;;15.25;;
81056;SDS011;70563;50.084;14.468;2023-10-19T09:18:52;19.92;;;13.85;;
81056;SDS011;70563;50.084;14.468;2023-10-19T09:21:18;22.00;;;14.20;;
81056;SDS011;70563;50.084;14.468;2023-10-19T09:23:54;22.10;;;13.45;;
81056;SDS011;70563;50.084;14.468;2023-10-19T09:26:21;29.20;;;15.13;;
81056;SDS011;70563;50.084;14.468;2023-10-19T09:28:48;25.65;;;13.43;;
81056;SDS011;70563;50.084;14.468;2023-10-19T09:31:15;20.77;;;12.85;;
81056;SDS011;70563;50.084;14.468;2023-10-19T09:33:41;26.48;;;13.23;;
81056;SDS011;70563;50.084;14.468;2023-10-19T09:36:09;23.13;;;13.65;;
81056;SDS011;70563;50.084;14.468;2023-10-19T09:38:45;22.70;;;13.55;;
81056;SDS011;70563;50.084;14.468;2023-10-19T09:41:22;29.65;;;13.45;;
81056;SDS011;70563;50.084;14.468;2023-10-19T09:43:53;24.55;;;14.50;;
81056;SDS011;70563;50.084;14.468;2023-10-19T09:46:24;29.08;;;13.98;;
81056;SDS011;70563;50.084;14.468;2023-10-19T09:48:54;22.25;;;13.75;;
81056;SDS011;70563;50.084;14.468;2023-10-19T09:51:20;25.00;;;14.30;;
81056;SDS011;70563;50.084;14.468;2023-10-19T09:54:04;28.05;;;15.02;;
81056;SDS011;70563;50.084;14.468;2023-10-19T09:56:37;18.38;;;12.85;;
81056;SDS011;70563;50.084;14.468;2023-10-19T09:59:06;22.00;;;13.68;;
81056;SDS011;70563;50.084;14.468;2023-10-19T10:04:32;22.20;;;13.48;;
81056;SDS011;70563;50.084;14.468;2023-10-19T10:07:00;21.23;;;13.40;;
81056;SDS011;70563;50.084;14.468;2023-10-19T10:09:26;22.33;;;12.98;;
81056;SDS011;70563;50.084;14.468;2023-10-19T10:11:51;20.35;;;12.60;;
81056;SDS011;70563;50.084;14.468;2023-10-19T10:14:27;19.50;;;12.23;;
81056;SDS011;70563;50.084;14.468;2023-10-19T10:17:03;17.23;;;11.48;;
81056;SDS011;70563;50.084;14.468;2023-10-19T10:19:30;15.45;;;11.40;;
81056;SDS011;70563;50.084;14.468;2023-10-19T10:22:14;14.30;;;11.38;;
81056;SDS011;70563;50.084;14.468;2023-10-19T10:24:45;18.42;;;11.85;;
81056;SDS011;70563;50.084;14.468;2023-10-19T10:27:11;16.25;;;11.73;;
81056;SDS011;70563;50.084;14.468;2023-10-19T10:29:54;19.80;;;13.02;;
81056;SDS011;70563;50.084;14.468;2023-10-19T10:38:08;18.45;;;12.13;;
81056;SDS011;70563;50.084;14.468;2023-10-19T10:40:43;20.05;;;13.48;;
81056;SDS011;70563;50.084;14.468;2023-10-19T10:43:16;23.25;;;13.43;;
81056;SDS011;70563;50.084;14.468;2023-10-19T10:45:42;20.10;;;13.98;;
81056;SDS011;70563;50.084;14.468;2023-10-19T10:48:15;21.90;;;13.70;;
81056;SDS011;70563;50.084;14.468;2023-10-19T10:50:41;18.42;;;14.25;;
81056;SDS011;70563;50.084;14.468;2023-10-19T10:53:08;17.38;;;12.45;;
81056;SDS011;70563;50.084;14.468;2023-10-19T10:55:36;17.60;;;12.95;;
81056;SDS011;70563;50.084;14.468;2023-10-19T10:58:02;18.33;;;12.32;;
81056;SDS011;70563;50.084;14.468;2023-10-19T11:00:27;17.45;;;13.40;;
81056;SDS011;70563;50.084;14.468;2023-10-19T11:03:00;17.45;;;12.48;;
81056;SDS011;70563;50.084;14.468;2023-10-19T11:05:28;19.60;;;14.05;;
81056;SDS011;70563;50.084;14.468;2023-10-19T11:08:10;18.90;;;12.57;;
81056;SDS011;70563;50.084;14.468;2023-10-19T11:10:40;15.98;;;12.68;;
81056;SDS011;70563;50.084;14.468;2023-10-19T11:13:11;18.65;;;14.20;;
81056;SDS011;70563;50.084;14.468;2023-10-19T11:20:55;19.02;;;14.30;;
81056;SDS011;70563;50.084;14.468;2023-10-19T11:23:34;20.42;;;15.15;;
81056;SDS011;70563;50.084;14.468;2023-10-19T11:26:03;22.17;;;13.75;;
81056;SDS011;70563;50.084;14.468;2023-10-19T11:28:30;20.25;;;14.15;;
81056;SDS011;70563;50.084;14.468;2023-10-19T11:31:18;21.52;;;14.65;;
81056;SDS011;70563;50.084;14.468;2023-10-19T11:33:47;21.75;;;14.60;;
81056;SDS011;70563;50.084;14.468;2023-10-19T11:36:16;21.98;;;14.50;;
81056;SDS011;70563;50.084;14.468;2023-10-19T11:38:44;21.45;;;14.52;;
81056;SDS011;70563;50.084;14.468;2023-10-19T11:41:12;20.55;;;14.27;;
81056;SDS011;70563;50.084;14.468;2023-10-19T11:43:45;23.77;;;16.48;;
81056;SDS011;70563;50.084;14.468;2023-10-19T11:46:11;25.95;;;14.68;;
81056;SDS011;70563;50.084;14.468;2023-10-19T11:48:37;21.80;;;16.13;;
81056;SDS011;70563;50.084;14.468;2023-10-19T11:51:05;26.33;;;15.05;;
81056;SDS011;70563;50.084;14.468;2023-10-19T11:53:31;27.50;;;15.68;;
81056;SDS011;70563;50.084;14.468;2023-10-19T11:55:59;18.98;;;14.07;;
81056;SDS011;70563;50.084;14.468;2023-10-19T11:58:25;20.98;;;14.13;;
81056;SDS011;70563;50.084;14.468;2023-10-19T12:00:51;23.58;;;15.15;;
81056;SDS011;70563;50.084;14.468;2023-10-19T12:03:17;16.42;;;12.85;;
81056;SDS011;70563;50.084;14.468;2023-10-19T12:05:43;20.63;;;15.48;;
81056;SDS011;70563;50.084;14.468;2023-10-19T12:08:09;21.60;;;14.73;;
81056;SDS011;70563;50.084;14.468;2023-10-19T12:10:34;21.48;;;15.13;;
81056;SDS011;70563;50.084;14.468;2023-10-19T12:13:03;21.70;;;14.43;;
81056;SDS011;70563;50.084;14.468;2023-10-19T12:15:31;18.55;;;13.48;;
81056;SDS011;70563;50.084;14.468;2023-10-19T12:17:57;20.63;;;14.43;;
81056;SDS011;70563;50.084;14.468;2023-10-19T12:20:23;19.58;;;13.63;;
81056;SDS011;70563;50.084;14.468;2023-10-19T12:22:48;19.30;;;13.85;;
81056;SDS011;70563;50.084;14.468;2023-10-19T12:25:17;19.52;;;13.80;;
81056;SDS011;70563;50.084;14.468;2023-10-19T12:27:42;19.75;;;14.80;;
81056;SDS011;70563;50.084;14.468;2023-10-19T12:30:08;28.55;;;16.98;;
81056;SDS011;70563;50.084;14.468;2023-10-19T12:32:46;21.20;;;14.48;;
81056;SDS011;70563;50.084;14.468;2023-10-19T12:35:14;19.92;;;14.65;;
81056;SDS011;70563;50.084;14.468;2023-10-19T12:37:40;19.40;;;14.18;;
81056;SDS011;70563;50.084;14.468;2023-10-19T12:40:14;20.27;;;13.90;;
81056;SDS011;70563;50.084;14.468;2023-10-19T12:42:52;18.38;;;12.85;;
81056;SDS011;70563;50.084;14.468;2023-10-19T12:45:20;22.63;;;15.85;;
81056;SDS011;70563;50.084;14.468;2023-10-19T12:47:46;19.50;;;14.25;;
81056;SDS011;70563;50.084;14.468;2023-10-19T12:50:12;19.83;;;13.75;;
81056;SDS011;70563;50.084;14.468;2023-10-19T12:52:38;17.45;;;12.65;;
81056;SDS011;70563;50.084;14.468;2023-10-19T12:55:05;21.17;;;14.13;;
81056;SDS011;70563;50.084;14.468;2023-10-19T12:57:31;20.27;;;13.50;;
81056;SDS011;70563;50.084;14.468;2023-10-19T12:59:57;21.70;;;14.60;;
81056;SDS011;70563;50.084;14.468;2023-10-19T13:02:31;20.95;;;15.43;;
81056;SDS011;70563;50.084;14.468;2023-10-19T13:04:57;21.23;;;14.15;;
81056;SDS011;70563;50.084;14.468;2023-10-19T13:07:24;21.85;;;14.25;;
81056;SDS011;70563;50.084;14.468;2023-10-19T13:09:51;19.67;;;14.35;;
81056;SDS011;70563;50.084;14.468;2023-10-19T13:12:16;19.65;;;15.20;;
81056;SDS011;70563;50.084;14.468;2023-10-19T13:14:42;20.63;;;14.95;;
81056;SDS011;70563;50.084;14.468;2023-10-19T13:17:08;26.50;;;14.38;;
81056;SDS011;70563;50.084;14.468;2023-10-19T13:19:35;21.98;;;15.52;;
81056;SDS011;70563;50.084;14.468;2023-10-19T13:22:02;22.17;;;15.38;;
81056;SDS011;70563;50.084;14.468;2023-10-19T13:24:32;24.17;;;15.20;;
81056;SDS011;70563;50.084;14.468;2023-10-19T13:27:05;23.60;;;14.52;;
81056;SDS011;70563;50.084;14.468;2023-10-19T13:29:31;22.38;;;14.95;;
81056;SDS011;70563;50.084;14.468;2023-10-19T13:32:02;21.13;;;15.10;;
81056;SDS011;70563;50.084;14.468;2023-10-19T13:34:28;27.70;;;16.23;;
81056;SDS011;70563;50.084;14.468;2023-10-19T13:36:53;25.00;;;15.88;;
81056;SDS011;70563;50.084;14.468;2023-10-19T13:39:20;24.98;;;16.17;;
81056;SDS011;70563;50.084;14.468;2023-10-19T13:41:50;25.80;;;17.15;;
81056;SDS011;70563;50.084;14.468;2023-10-19T13:44:17;26.95;;;16.75;;
81056;SDS011;70563;50.084;14.468;2023-10-19T13:46:45;25.65;;;16.40;;
81056;SDS011;70563;50.084;14.468;2023-10-19T13:49:11;23.38;;;16.10;;
81056;SDS011;70563;50.084;14.468;2023-10-19T13:51:36;26.05;;;16.13;;
81056;SDS011;70563;50.084;14.468;2023-10-19T13:54:04;25.50;;;17.70;;
81056;SDS011;70563;50.084;14.468;2023-10-19T13:56:30;26.35;;;16.80;;
81056;SDS011;70563;50.084;14.468;2023-10-19T13:58:55;24.27;;;16.40;;
81056;SDS011;70563;50.084;14.468;2023-10-19T14:01:21;26.98;;;17.10;;
81056;SDS011;70563;50.084;14.468;2023-10-19T14:03:50;29.15;;;16.30;;
81056;SDS011;70563;50.084;14.468;2023-10-19T14:08:45;28.52;;;16.45;;
81056;SDS011;70563;50.084;14.468;2023-10-19T14:11:10;27.88;;;17.55;;
81056;SDS011;70563;50.084;14.468;2023-10-19T14:13:36;27.63;;;17.90;;
81056;SDS011;70563;50.084;14.468;2023-10-19T14:16:05;28.42;;;16.83;;
81056;SDS011;70563;50.084;14.468;2023-10-19T14:18:31;31.75;;;18.98;;
81056;SDS011;70563;50.084;14.468;2023-10-19T14:20:56;28.58;;;17.48;;
81056;SDS011;70563;50.084;14.468;2023-10-19T14:23:22;29.48;;;17.83;;
81056;SDS011;70563;50.084;14.468;2023-10-19T14:25:49;29.70;;;17.15;;
81056;SDS011;70563;50.084;14.468;2023-10-19T14:28:15;26.65;;;17.67;;
81056;SDS011;70563;50.084;14.468;2023-10-19T14:30:40;26.88;;;17.83;;
81056;SDS011;70563;50.084;14.468;2023-10-19T14:33:05;26.02;;;18.25;;
81056;SDS011;70563;50.084;14.468;2023-10-19T14:35:36;33.65;;;19.20;;
81056;SDS011;70563;50.084;14.468;2023-10-19T14:38:04;29.80;;;17.98;;
81056;SDS011;70563;50.084;14.468;2023-10-19T14:40:31;29.13;;;18.80;;
81056;SDS011;70563;50.084;14.468;2023-10-19T14:42:57;26.95;;;17.70;;
81056;SDS011;70563;50.084;14.468;2023-10-19T14:45:26;30.98;;;18.25;;